Time;durP1;ratioP1;P1;durP2;ratioP2;P2;SDS_P1;SDS_P2;PMS_P1;PMS_P2;Temp;Humidity;BMP_temperature;BMP_pressure;BME280_temperature;BME280_humidity;BME280_pressure;Samples;Min_cycle;Max_cycle;Signal;HPM_P1;HPM_P2
2022/05/06 00:01:39;;;;;;;1.63;1.50;;;8.20;99.90;;;;;;5042061;28;20293;-79
2022/05/06 00:04:06;;;;;;;2.13;1.47;;;8.30;99.90;;;;;;5026268;28;20197;-79
2022/05/06 00:06:32;;;;;;;1.87;1.67;;;8.10;99.90;;;;;;5041595;28;20203;-80
2022/05/06 00:08:58;;;;;;;2.27;1.43;;;8.00;99.90;;;;;;5040551;28;20194;-79
2022/05/06 00:11:25;;;;;;;2.07;1.60;;;7.90;99.90;;;;;;5040891;28;20248;-80
2022/05/06 00:13:52;;;;;;;3.57;1.70;;;7.70;99.90;;;;;;5041514;28;20690;-79
2022/05/06 00:16:23;;;;;;;1.73;1.63;;;7.70;99.90;;;;;;5041389;28;20555;-78
2022/05/06 00:18:49;;;;;;;3.50;1.77;;;7.50;99.90;;;;;;5041603;28;20244;-78
2022/05/06 00:21:15;;;;;;;3.00;2.00;;;7.40;99.90;;;;;;5042100;28;20223;-80
2022/05/06 00:23:41;;;;;;;2.30;1.80;;;7.30;99.90;;;;;;5041297;28;20252;-79
2022/05/06 00:26:08;;;;;;;3.70;1.70;;;7.20;99.90;;;;;;5041516;28;20183;-79
2022/05/06 00:28:34;;;;;;;2.10;1.90;;;7.30;99.90;;;;;;5025319;28;20612;-79
2022/05/06 00:31:02;;;;;;;1.93;1.73;;;7.20;99.90;;;;;;5026436;28;20306;-78
2022/05/06 00:33:31;;;;;;;1.70;1.60;;;7.00;99.90;;;;;;5041686;28;20234;-79
2022/05/06 00:35:59;;;;;;;1.73;1.63;;;7.00;99.90;;;;;;5042213;28;20277;-79
2022/05/06 00:38:25;;;;;;;4.23;2.13;;;7.00;99.90;;;;;;5040914;28;20665;-79
2022/05/06 00:40:51;;;;;;;3.30;1.97;;;7.10;99.90;;;;;;5041550;28;20217;-79
2022/05/06 00:43:18;;;;;;;1.70;1.60;;;7.20;99.90;;;;;;5040910;28;20202;-79
2022/05/06 00:45:57;;;;;;;1.60;1.50;;;7.30;99.90;;;;;;5041174;28;20198;-79
2022/05/06 00:48:32;;;;;;;3.13;1.93;;;7.20;99.90;;;;;;5040661;28;20264;-79
2022/05/06 00:50:59;;;;;;;2.50;1.53;;;7.20;99.90;;;;;;5026743;28;20170;-79
2022/05/06 00:53:26;;;;;;;2.17;1.63;;;7.00;99.90;;;;;;5025300;28;20207;-78
2022/05/06 00:55:52;;;;;;;2.00;1.77;;;6.90;99.90;;;;;;5041417;28;20562;-78
2022/05/06 00:58:19;;;;;;;1.93;1.60;;;6.90;99.90;;;;;;5041366;28;20644;-79
2022/05/06 01:00:45;;;;;;;2.40;2.03;;;6.90;99.90;;;;;;5026079;28;20191;-79
2022/05/06 01:03:11;;;;;;;1.77;1.63;;;6.90;99.90;;;;;;5024451;28;20333;-78
2022/05/06 01:05:40;;;;;;;2.50;1.50;;;6.90;99.90;;;;;;5026108;28;20202;-80
2022/05/06 01:08:08;;;;;;;3.07;2.17;;;6.90;99.90;;;;;;5025030;28;20234;-79
2022/05/06 01:10:37;;;;;;;3.33;1.83;;;7.10;99.90;;;;;;5025779;28;20186;-80
2022/05/06 01:13:02;;;;;;;2.00;1.77;;;7.10;99.90;;;;;;5026088;28;20203;-79
2022/05/06 01:15:29;;;;;;;2.10;1.90;;;7.10;99.90;;;;;;5041290;28;20232;-80
2022/05/06 01:17:57;;;;;;;1.97;1.77;;;7.00;99.90;;;;;;5040621;28;20257;-78
2022/05/06 01:20:24;;;;;;;3.17;2.10;;;6.80;99.90;;;;;;5025802;28;20198;-79
2022/05/06 01:22:58;;;;;;;1.83;1.70;;;6.70;99.90;;;;;;5025570;28;20214;-78
2022/05/06 01:25:24;;;;;;;2.00;1.80;;;6.80;99.90;;;;;;5025887;28;20249;-79
2022/05/06 01:28:00;;;;;;;3.53;1.90;;;6.80;99.90;;;;;;5040648;28;20211;-79
2022/05/06 01:30:38;;;;;;;1.77;1.60;;;6.90;99.90;;;;;;5041128;28;20183;-78
2022/05/06 01:33:09;;;;;;;1.80;1.70;;;7.00;99.90;;;;;;5025576;28;20253;-79
2022/05/06 01:36:04;;;;;;;1.83;1.73;;;7.00;99.90;;;;;;5025827;28;20179;-79
2022/05/06 01:38:50;;;;;;;2.07;1.70;;;6.90;99.90;;;;;;5012498;28;20199;-78
2022/05/06 01:41:21;;;;;;;1.57;1.47;;;6.90;99.90;;;;;;5041333;28;20236;-78
2022/05/06 01:43:52;;;;;;;1.73;1.63;;;7.00;99.90;;;;;;5024929;28;20183;-79
2022/05/06 01:46:20;;;;;;;1.83;1.73;;;7.00;99.90;;;;;;5025299;28;20210;-79
2022/05/06 01:48:48;;;;;;;2.03;1.60;;;6.80;99.90;;;;;;5025690;28;20254;-79
2022/05/06 01:51:15;;;;;;;2.20;2.00;;;6.70;99.90;;;;;;5026230;28;20240;-79
2022/05/06 01:53:42;;;;;;;2.97;1.87;;;6.60;99.90;;;;;;5043034;28;20305;-78
2022/05/06 01:56:08;;;;;;;3.20;2.03;;;6.70;99.90;;;;;;5028458;28;20191;-78
2022/05/06 01:58:34;;;;;;;2.50;1.63;;;6.60;99.90;;;;;;5045578;28;20294;-78
2022/05/06 02:01:00;;;;;;;2.13;1.83;;;6.60;99.90;;;;;;5032952;28;20195;-79
2022/05/06 02:06:10;;;;;;;1.50;1.40;;;6.70;99.90;;;;;;5031901;28;20214;-79
2022/05/06 02:08:35;;;;;;;3.20;1.70;;;6.70;99.90;;;;;;5046506;28;20183;-79
2022/05/06 02:11:02;;;;;;;1.87;1.67;;;6.70;99.90;;;;;;5047021;28;20206;-78
2022/05/06 02:13:27;;;;;;;4.13;1.90;;;6.70;99.90;;;;;;5031625;28;20201;-79
2022/05/06 02:15:53;;;;;;;4.57;3.47;;;6.70;99.90;;;;;;5031431;28;20183;-79
2022/05/06 02:18:19;;;;;;;2.80;2.50;;;6.80;99.90;;;;;;5046377;28;20658;-79
2022/05/06 02:20:45;;;;;;;2.90;2.30;;;6.80;99.90;;;;;;5046723;28;20201;-80
2022/05/06 02:23:12;;;;;;;2.03;1.83;;;6.70;99.90;;;;;;5046908;28;20265;-80
2022/05/06 02:25:38;;;;;;;2.53;2.00;;;6.70;99.90;;;;;;5031714;28;20901;-79
2022/05/06 02:28:05;;;;;;;2.00;1.73;;;6.80;99.90;;;;;;5046584;28;20214;-78
2022/05/06 02:33:15;;;;;;;1.60;1.50;;;6.60;99.90;;;;;;5030792;28;20229;-79
2022/05/06 02:35:44;;;;;;;1.67;1.57;;;6.60;99.90;;;;;;5046797;28;21042;-78
2022/05/06 02:38:11;;;;;;;1.60;1.50;;;6.50;99.90;;;;;;5045665;28;20187;-79
2022/05/06 02:40:38;;;;;;;2.27;1.97;;;6.60;99.90;;;;;;5031433;28;20261;-80
2022/05/06 02:43:06;;;;;;;2.67;1.70;;;6.50;99.90;;;;;;5030695;28;20213;-79
2022/05/06 02:45:32;;;;;;;2.57;2.03;;;6.40;99.90;;;;;;5045457;28;20225;-79
2022/05/06 02:47:58;;;;;;;2.43;2.10;;;6.50;99.90;;;;;;5030508;28;20282;-78
2022/05/06 02:50:24;;;;;;;2.57;1.80;;;6.40;99.90;;;;;;5045848;28;20701;-78
2022/05/06 02:52:50;;;;;;;2.73;2.00;;;6.40;99.90;;;;;;5045818;28;20209;-78
2022/05/06 02:55:16;;;;;;;2.13;1.70;;;6.30;99.90;;;;;;5030581;28;20624;-79
2022/05/06 02:57:41;;;;;;;2.73;1.87;;;6.20;99.90;;;;;;5030334;28;20198;-79
2022/05/06 03:00:08;;;;;;;1.97;1.67;;;6.20;99.90;;;;;;5030568;28;20221;-80
2022/05/06 03:02:34;;;;;;;2.40;1.77;;;6.10;99.90;;;;;;5030143;28;20210;-78
2022/05/06 03:05:00;;;;;;;1.73;1.57;;;6.00;99.90;;;;;;5030630;28;20683;-80
2022/05/06 03:07:25;;;;;;;2.10;1.70;;;6.20;99.90;;;;;;5045147;28;20684;-78
2022/05/06 03:09:52;;;;;;;2.30;1.70;;;6.20;99.90;;;;;;5044462;28;20191;-78
2022/05/06 03:12:19;;;;;;;3.20;1.60;;;6.10;99.90;;;;;;5030568;28;20218;-78
2022/05/06 03:14:45;;;;;;;2.77;1.63;;;6.10;99.90;;;;;;5044550;28;20676;-79
2022/05/06 03:17:11;;;;;;;3.10;1.60;;;6.10;99.90;;;;;;5030686;28;20214;-79
2022/05/06 03:19:36;;;;;;;1.70;1.60;;;5.90;99.90;;;;;;5045019;28;20276;-79
2022/05/06 03:22:02;;;;;;;2.37;1.80;;;5.80;99.90;;;;;;5030214;28;20211;-79
2022/05/06 03:24:28;;;;;;;1.70;1.60;;;5.80;99.90;;;;;;5044342;28;20191;-79
2022/05/06 03:26:54;;;;;;;2.23;1.70;;;5.80;99.90;;;;;;5043928;28;20202;-78
2022/05/06 03:29:19;;;;;;;2.07;1.60;;;5.90;99.90;;;;;;5042248;28;20187;-79
2022/05/06 03:31:45;;;;;;;1.90;1.70;;;5.90;99.90;;;;;;5043743;28;20202;-79
2022/05/06 03:34:12;;;;;;;2.63;1.77;;;6.00;99.90;;;;;;5042926;28;20270;-79
2022/05/06 03:36:38;;;;;;;2.43;1.80;;;6.00;99.90;;;;;;5043128;28;20225;-76
2022/05/06 03:39:04;;;;;;;1.80;1.70;;;6.00;99.90;;;;;;5027499;28;20190;-78
2022/05/06 03:41:30;;;;;;;4.07;2.00;;;5.90;99.90;;;;;;5028206;28;20198;-80
2022/05/06 03:43:56;;;;;;;2.50;1.70;;;5.80;99.90;;;;;;5027696;28;20195;-78
2022/05/06 03:46:21;;;;;;;2.47;1.90;;;5.70;99.90;;;;;;5042604;28;20195;-77
2022/05/06 03:48:47;;;;;;;1.87;1.60;;;5.60;99.90;;;;;;5027681;28;20183;-77
2022/05/06 03:51:22;;;;;;;1.93;1.60;;;5.60;99.90;;;;;;5043354;28;20197;-78
2022/05/06 03:53:54;;;;;;;1.70;1.60;;;5.60;99.90;;;;;;5027578;28;20179;-78
2022/05/06 03:56:24;;;;;;;2.40;1.90;;;5.70;99.90;;;;;;5042796;28;20187;-78
2022/05/06 03:58:51;;;;;;;1.50;1.40;;;5.70;99.90;;;;;;5042074;28;20653;-78
2022/05/06 04:01:19;;;;;;;2.30;1.97;;;5.60;99.90;;;;;;5027149;28;20634;-80
2022/05/06 04:03:45;;;;;;;2.50;1.80;;;5.70;99.90;;;;;;5041820;28;20183;-78
2022/05/06 04:06:14;;;;;;;2.87;2.03;;;5.90;99.90;;;;;;5027188;28;20661;-79
2022/05/06 04:08:41;;;;;;;2.10;1.90;;;5.90;99.90;;;;;;5027236;28;20202;-78
2022/05/06 04:11:08;;;;;;;1.93;1.73;;;5.90;99.90;;;;;;5027226;28;20226;-79
2022/05/06 04:13:34;;;;;;;1.93;1.53;;;6.20;99.90;;;;;;5026534;28;20578;-78
2022/05/06 04:16:01;;;;;;;1.77;1.67;;;6.10;99.90;;;;;;5027568;28;20244;-78
2022/05/06 04:18:27;;;;;;;2.00;1.80;;;6.20;99.90;;;;;;5042164;28;20179;-81
2022/05/06 04:23:38;;;;;;;3.87;2.10;;;6.30;99.90;;;;;;5027311;28;20264;-78
2022/05/06 04:26:06;;;;;;;2.43;1.73;;;6.50;99.90;;;;;;5026735;28;20215;-78
2022/05/06 04:28:32;;;;;;;1.70;1.60;;;6.40;99.90;;;;;;5029277;28;20233;-78
2022/05/06 04:30:58;;;;;;;2.50;2.20;;;6.50;99.90;;;;;;5042328;28;20187;-78
2022/05/06 04:33:25;;;;;;;2.83;1.73;;;6.50;99.90;;;;;;5026635;28;20198;-80
2022/05/06 04:35:51;;;;;;;2.17;1.97;;;6.50;99.90;;;;;;5026825;28;20191;-79
2022/05/06 04:38:17;;;;;;;3.07;1.90;;;6.50;99.90;;;;;;5041811;28;20229;-79
2022/05/06 04:40:42;;;;;;;3.07;1.67;;;6.70;99.90;;;;;;5041931;28;20186;-80
2022/05/06 04:43:09;;;;;;;2.33;2.00;;;6.90;99.90;;;;;;5027196;28;20207;-80
2022/05/06 04:45:41;;;;;;;1.97;1.77;;;7.10;99.90;;;;;;5026436;28;20183;-79
2022/05/06 04:48:08;;;;;;;4.47;1.90;;;7.40;99.90;;;;;;5041265;28;20209;-79
2022/05/06 04:50:35;;;;;;;4.17;1.97;;;7.70;99.90;;;;;;5026450;28;20225;-79
2022/05/06 04:53:01;;;;;;;1.77;1.67;;;8.10;99.90;;;;;;5039745;28;20210;-80
2022/05/06 04:55:26;;;;;;;2.33;1.70;;;8.60;99.90;;;;;;5025673;28;20270;-80
2022/05/06 04:57:52;;;;;;;3.00;1.57;;;9.30;99.90;;;;;;5025689;28;20269;-80
2022/05/06 05:00:19;;;;;;;1.50;1.40;;;10.10;99.90;;;;;;5040945;28;20174;-79
2022/05/06 05:02:45;;;;;;;2.38;1.50;;;10.90;99.90;;;;;;5025430;28;20202;-80
2022/05/06 05:05:10;;;;;;;1.40;1.30;;;11.40;99.90;;;;;;5040729;28;20191;-80
2022/05/06 05:07:36;;;;;;;2.00;1.60;;;12.10;99.90;;;;;;5025346;28;20209;-79
2022/05/06 05:10:02;;;;;;;3.67;1.42;;;12.50;99.90;;;;;;5040733;28;20190;-80
2022/05/06 05:12:28;;;;;;;1.83;1.50;;;12.70;99.90;;;;;;5040682;28;20253;-80
2022/05/06 05:14:54;;;;;;;1.70;1.33;;;13.00;99.90;;;;;;5040610;28;20217;-80
2022/05/06 05:17:20;;;;;;;2.78;1.70;;;13.60;99.90;;;;;;5023799;28;20191;-80
2022/05/06 05:19:45;;;;;;;2.25;1.75;;;13.80;99.90;;;;;;5024841;28;20237;-80
2022/05/06 05:22:11;;;;;;;5.05;1.55;;;14.10;99.90;;;;;;5040790;28;20293;-80
2022/05/06 05:24:36;;;;;;;1.77;1.65;;;14.50;99.90;;;;;;5040395;28;20273;-80
2022/05/06 05:27:02;;;;;;;2.58;2.00;;;14.90;99.90;;;;;;5040359;28;20351;-80
2022/05/06 05:29:28;;;;;;;1.90;1.70;;;15.10;99.90;;;;;;5040039;28;20187;-80
2022/05/06 05:31:54;;;;;;;4.03;1.77;;;15.50;99.90;;;;;;5025722;28;20665;-80
2022/05/06 05:34:21;;;;;;;1.80;1.70;;;15.60;99.90;;;;;;5028480;28;20642;-80
2022/05/06 05:36:46;;;;;;;2.17;2.00;;;15.80;99.90;;;;;;5044997;28;20218;-80
2022/05/06 05:39:12;;;;;;;2.72;1.90;;;16.00;99.90;;;;;;5044604;28;20260;-81
2022/05/06 05:41:38;;;;;;;3.28;1.70;;;16.00;99.90;;;;;;5044862;28;20210;-80
2022/05/06 05:49:32;;;;;;;2.90;1.80;;;16.50;99.90;;;;;;5029661;28;20190;-81
2022/05/06 05:51:58;;;;;;;4.05;2.08;;;16.70;99.90;;;;;;5044993;28;20202;-81
2022/05/06 05:54:23;;;;;;;2.58;1.50;;;17.20;99.90;;;;;;5044574;28;20183;-80
2022/05/06 05:56:49;;;;;;;2.08;1.88;;;17.20;99.90;;;;;;5044862;28;20810;-80
2022/05/06 05:59:15;;;;;;;5.18;1.67;;;17.00;99.90;;;;;;5045135;28;20194;-82
2022/05/06 06:01:41;;;;;;;3.88;1.85;;;17.20;99.90;;;;;;5029269;28;20198;-82
2022/05/06 06:04:06;;;;;;;2.08;1.80;;;17.10;99.90;;;;;;5029118;28;20221;-81
2022/05/06 06:06:32;;;;;;;4.15;2.00;;;17.00;99.90;;;;;;5044550;28;20187;-81
2022/05/06 06:08:57;;;;;;;2.33;1.85;;;17.20;99.90;;;;;;5028376;28;20695;-80
2022/05/06 06:11:23;;;;;;;2.35;2.03;;;17.40;99.90;;;;;;5028827;28;20198;-81
2022/05/06 06:13:48;;;;;;;2.67;2.20;;;17.60;99.90;;;;;;5044161;28;20672;-79
2022/05/06 06:16:14;;;;;;;3.28;2.22;;;17.80;99.90;;;;;;5029084;28;20190;-81
2022/05/06 06:18:40;;;;;;;3.55;2.22;;;18.20;99.90;;;;;;5028886;28;20187;-80
2022/05/06 06:21:06;;;;;;;2.58;2.25;;;18.50;99.90;;;;;;5044692;28;20174;-82
2022/05/06 06:23:32;;;;;;;3.80;2.28;;;18.60;99.70;;;;;;5029218;28;20191;-81
2022/05/06 06:25:59;;;;;;;4.35;2.60;;;19.00;99.90;;;;;;5045026;28;20183;-81
2022/05/06 06:28:24;;;;;;;5.18;2.85;;;19.00;99.30;;;;;;5044081;28;20202;-83
2022/05/06 06:30:50;;;;;;;4.63;2.70;;;18.80;99.10;;;;;;5028606;28;20563;-82
2022/05/06 06:33:16;;;;;;;3.50;3.08;;;18.70;99.00;;;;;;5028403;28;20256;-81
2022/05/06 06:35:41;;;;;;;5.60;2.83;;;18.50;99.00;;;;;;5044462;28;20652;-80
2022/05/06 06:38:07;;;;;;;4.43;3.00;;;18.00;99.50;;;;;;5044044;28;20232;-80
2022/05/06 06:40:33;;;;;;;3.67;3.05;;;17.50;99.90;;;;;;5027614;28;20530;-81
2022/05/06 06:43:04;;;;;;;4.55;3.40;;;16.90;99.90;;;;;;5043068;28;20211;-80
2022/05/06 06:45:29;;;;;;;4.88;3.55;;;16.30;99.90;;;;;;5042221;28;20268;-80
2022/05/06 06:47:57;;;;;;;5.13;3.70;;;15.80;99.90;;;;;;5043321;28;20247;-80
2022/05/06 06:50:23;;;;;;;5.43;3.40;;;15.50;99.90;;;;;;5044407;28;20206;-79
2022/05/06 06:52:50;;;;;;;5.78;3.40;;;15.50;99.90;;;;;;5029332;28;20692;-80
2022/05/06 06:55:16;;;;;;;4.80;3.78;;;15.30;99.90;;;;;;5044884;28;20681;-80
2022/05/06 06:57:41;;;;;;;4.78;3.60;;;15.30;99.90;;;;;;5027622;28;20206;-80
2022/05/06 07:00:08;;;;;;;4.70;3.30;;;15.30;99.90;;;;;;5040438;28;20221;-80
2022/05/06 07:02:36;;;;;;;4.13;3.70;;;15.30;99.90;;;;;;5040474;28;20260;-80
2022/05/06 07:05:02;;;;;;;4.68;3.65;;;15.30;99.90;;;;;;5041178;28;20191;-80
2022/05/06 07:12:56;;;;;;;5.55;3.55;;;15.30;99.90;;;;;;5026056;28;20228;-81
2022/05/06 07:15:23;;;;;;;5.00;3.42;;;15.50;99.90;;;;;;5040840;28;20191;-80
2022/05/06 07:17:48;;;;;;;3.95;3.45;;;15.70;99.90;;;;;;5040136;28;20179;-80
2022/05/06 07:20:14;;;;;;;6.38;4.07;;;16.00;99.90;;;;;;5025747;28;20182;-81
2022/05/06 07:22:40;;;;;;;6.45;3.53;;;16.00;99.90;;;;;;5039971;28;20289;-79
2022/05/06 07:25:06;;;;;;;5.38;3.53;;;16.20;99.90;;;;;;5024860;28;20179;-79
2022/05/06 07:27:35;;;;;;;4.82;3.80;;;16.30;99.90;;;;;;5024090;28;20219;-80
2022/05/06 07:30:03;;;;;;;5.38;3.65;;;16.40;99.90;;;;;;5039382;28;20271;-80
2022/05/06 07:32:28;;;;;;;5.65;4.07;;;16.50;99.90;;;;;;5039280;28;20357;-79
2022/05/06 07:34:54;;;;;;;5.35;3.78;;;16.50;99.90;;;;;;5039265;28;20282;-79
2022/05/06 07:37:20;;;;;;;5.50;4.10;;;16.70;99.90;;;;;;5038496;28;20197;-80
2022/05/06 07:39:45;;;;;;;5.63;4.15;;;16.80;99.90;;;;;;5024437;28;20574;-79
2022/05/06 07:42:12;;;;;;;4.40;4.00;;;16.40;99.90;;;;;;5024165;28;20860;-79
2022/05/06 07:44:37;;;;;;;5.07;4.13;;;16.30;99.90;;;;;;5039988;28;20232;-79
2022/05/06 07:47:03;;;;;;;4.13;3.47;;;16.40;99.90;;;;;;5023217;28;20250;-79
2022/05/06 07:49:29;;;;;;;7.80;4.10;;;16.30;99.90;;;;;;5023513;28;20683;-80
2022/05/06 07:51:54;;;;;;;6.53;3.88;;;16.40;99.90;;;;;;5042120;28;20214;-80
2022/05/06 07:54:20;;;;;;;5.93;3.83;;;16.70;99.90;;;;;;5041642;28;20277;-80
2022/05/06 07:56:45;;;;;;;6.97;3.70;;;16.90;99.90;;;;;;5041066;28;20194;-80
2022/05/06 07:59:11;;;;;;;4.97;4.10;;;17.00;99.90;;;;;;5040972;28;20195;-80
2022/05/06 08:04:34;;;;;;;5.72;3.50;;;17.40;99.90;;;;;;5027046;28;20190;-80
2022/05/06 08:07:00;;;;;;;5.45;3.47;;;17.40;99.90;;;;;;5041729;28;20206;-80
2022/05/06 08:09:26;;;;;;;4.57;3.85;;;17.50;99.90;;;;;;5042427;28;20249;-80
2022/05/06 08:11:52;;;;;;;3.85;3.45;;;17.60;99.90;;;;;;5026927;28;20276;-80
2022/05/06 08:14:18;;;;;;;4.30;3.90;;;17.50;99.90;;;;;;5041452;28;20758;-80
2022/05/06 08:16:45;;;;;;;6.57;4.25;;;17.50;99.90;;;;;;5041054;28;20189;-80
2022/05/06 08:19:11;;;;;;;5.20;3.85;;;17.40;99.90;;;;;;5025173;28;20650;-80
2022/05/06 08:21:37;;;;;;;6.00;4.25;;;17.60;99.90;;;;;;5040563;28;20211;-80
2022/05/06 08:24:03;;;;;;;4.85;3.67;;;17.90;99.90;;;;;;5026146;28;20190;-80
2022/05/06 08:26:29;;;;;;;5.07;3.85;;;18.10;99.90;;;;;;5026434;28;20191;-80
2022/05/06 08:28:55;;;;;;;7.05;4.15;;;18.10;99.90;;;;;;5039047;28;20191;-81
2022/05/06 08:31:21;;;;;;;5.97;3.75;;;17.70;99.90;;;;;;5023280;28;20716;-80
2022/05/06 08:33:46;;;;;;;5.63;3.40;;;17.60;99.90;;;;;;5039492;28;20600;-80
2022/05/06 08:36:12;;;;;;;4.95;3.63;;;17.80;99.90;;;;;;5023993;28;20186;-80
2022/05/06 08:38:38;;;;;;;4.57;4.00;;;18.10;99.90;;;;;;5022037;28;20223;-81
2022/05/06 08:41:05;;;;;;;4.65;4.00;;;18.20;99.90;;;;;;5042006;28;20195;-81
2022/05/06 08:43:31;;;;;;;5.30;3.65;;;18.20;99.90;;;;;;5039679;28;20628;-81
2022/05/06 08:51:37;;;;;;;5.90;4.13;;;18.60;99.90;;;;;;5025888;28;20185;-81
2022/05/06 08:54:03;;;;;;;5.22;3.90;;;18.60;99.90;;;;;;5024819;28;20210;-80
2022/05/06 08:56:30;;;;;;;7.25;4.03;;;18.60;99.90;;;;;;5040724;28;20901;-80
2022/05/06 08:58:56;;;;;;;6.47;3.55;;;18.40;99.90;;;;;;5032015;28;20642;-81
2022/05/06 09:01:23;;;;;;;4.13;2.95;;;18.60;99.70;;;;;;5040175;28;20189;-81
2022/05/06 09:03:49;;;;;;;5.57;3.78;;;18.80;99.90;;;;;;5038438;28;20187;-82
2022/05/06 09:06:26;;;;;;;4.43;3.58;;;18.80;99.40;;;;;;5023430;28;20275;-82
2022/05/06 09:08:54;;;;;;;6.60;3.97;;;18.90;99.00;;;;;;5034352;28;20191;-80
2022/05/06 09:12:40;;;;;;;4.82;3.65;;;19.00;99.10;;;;;;5037750;28;20290;-81
2022/05/06 09:14:12;;;;;;;4.63;3.42;;;19.00;98.40;;;;;;5022744;28;20228;-81
2022/05/06 09:16:40;;;;;;;5.95;3.55;;;19.20;98.40;;;;;;5036817;28;20179;-81
2022/05/06 09:19:28;;;;;;;6.18;4.10;;;19.20;99.40;;;;;;5036956;28;20569;-80
2022/05/06 09:22:14;;;;;;;6.75;4.60;;;19.30;98.10;;;;;;5022521;28;20209;-81
2022/05/06 09:24:41;;;;;;;5.18;4.22;;;19.10;98.30;;;;;;5038074;28;20187;-81
2022/05/06 09:27:15;;;;;;;6.80;4.93;;;19.20;97.80;;;;;;5021401;28;20198;-80
2022/05/06 09:29:54;;;;;;;7.07;4.88;;;19.10;97.50;;;;;;5023801;28;20190;-81
2022/05/06 09:32:30;;;;;;;5.80;4.78;;;19.00;97.90;;;;;;5023333;28;20449;-81
2022/05/06 09:34:58;;;;;;;6.90;5.20;;;18.90;98.00;;;;;;5036218;28;20273;-81
2022/05/06 09:37:38;;;;;;;8.13;4.65;;;19.30;97.50;;;;;;5038916;28;20247;-81
2022/05/06 09:40:12;;;;;;;7.00;4.25;;;19.10;97.00;;;;;;5025599;28;20285;-80
2022/05/06 09:42:45;;;;;;;7.43;5.32;;;19.30;97.20;;;;;;5025159;28;20593;-81
2022/05/06 09:45:13;;;;;;;6.53;5.25;;;19.50;96.20;;;;;;5024856;28;20622;-80
2022/05/06 09:47:40;;;;;;;9.32;5.50;;;19.60;96.10;;;;;;5023054;28;20218;-80
2022/05/06 09:50:08;;;;;;;7.15;4.53;;;19.80;96.00;;;;;;5019918;28;20175;-80
2022/05/06 09:52:34;;;;;;;8.35;4.60;;;19.90;96.20;;;;;;5035808;28;20207;-80
2022/05/06 09:55:01;;;;;;;5.15;4.40;;;20.20;95.90;;;;;;5021006;28;20663;-82
2022/05/06 09:57:27;;;;;;;6.13;5.10;;;20.40;94.80;;;;;;5022357;28;20847;-80
2022/05/06 09:59:52;;;;;;;5.43;4.78;;;20.40;94.00;;;;;;5021908;28;20221;-80
2022/05/06 10:02:18;;;;;;;7.45;5.00;;;20.20;94.60;;;;;;5023065;28;20244;-82
2022/05/06 10:04:44;;;;;;;7.10;5.60;;;20.00;93.60;;;;;;5037109;28;20653;-85
2022/05/06 10:07:12;;;;;;;8.23;4.93;;;19.70;94.30;;;;;;5036876;28;20203;-82
2022/05/06 10:10:05;;;;;;;6.55;4.57;;;20.10;94.60;;;;;;5037718;28;20182;-81
2022/05/06 10:12:37;;;;;;;6.05;4.60;;;20.50;94.40;;;;;;5038780;28;20223;-84
2022/05/06 10:15:08;;;;;;;6.47;4.70;;;20.90;93.60;;;;;;5038496;28;20195;-84
2022/05/06 10:18:01;;;;;;;5.10;4.60;;;21.10;92.60;;;;;;5038307;28;20689;-82
2022/05/06 10:20:36;;;;;;;5.63;4.65;;;21.00;91.20;;;;;;5042057;28;20281;-82
2022/05/06 10:23:06;;;;;;;6.53;4.80;;;20.80;91.50;;;;;;5042278;28;21027;-84
2022/05/06 10:25:41;;;;;;;5.20;4.10;;;21.00;92.00;;;;;;5041954;28;20195;-83
2022/05/06 10:34:16;;;;;;;5.75;4.32;;;21.20;90.30;;;;;;5026983;28;20253;-81
2022/05/06 10:36:44;;;;;;;4.65;4.18;;;21.70;90.30;;;;;;5027678;28;20218;-83
2022/05/06 10:39:26;;;;;;;6.35;4.68;;;21.90;89.40;;;;;;5042858;28;20178;-83
2022/05/06 10:42:03;;;;;;;5.22;4.40;;;22.20;88.00;;;;;;5045726;28;20207;-85
2022/05/06 10:44:39;;;;;;;5.60;4.70;;;22.40;86.60;;;;;;5043343;28;20608;-83
2022/05/06 10:47:11;;;;;;;8.15;4.28;;;22.50;85.60;;;;;;5044487;28;20289;-82
2022/05/06 10:49:40;;;;;;;7.47;4.72;;;22.80;87.30;;;;;;5042893;28;20564;-82
2022/05/06 10:52:23;;;;;;;5.10;4.43;;;23.20;83.60;;;;;;5042972;28;20202;-83
2022/05/06 10:54:50;;;;;;;9.93;5.45;;;23.20;82.60;;;;;;5041201;28;20187;-84
2022/05/06 10:57:19;;;;;;;5.75;4.88;;;22.90;81.40;;;;;;5042796;28;20214;-82
2022/05/06 10:59:48;;;;;;;7.32;4.63;;;22.80;83.30;;;;;;5043367;28;20191;-82
2022/05/06 11:02:14;;;;;;;5.57;4.18;;;22.50;79.60;;;;;;5027256;28;20681;-84
2022/05/06 11:04:43;;;;;;;4.53;3.70;;;22.00;79.70;;;;;;5041693;28;20195;-83
2022/05/06 11:07:12;;;;;;;4.22;3.47;;;22.00;79.80;;;;;;5026712;28;20208;-83
2022/05/06 11:09:38;;;;;;;5.53;3.55;;;22.20;79.20;;;;;;5041418;28;20182;-83
2022/05/06 11:12:03;;;;;;;5.70;4.03;;;21.90;77.60;;;;;;5042432;28;20299;-83
2022/05/06 11:14:29;;;;;;;4.32;3.72;;;21.60;78.90;;;;;;5026148;28;20186;-85
2022/05/06 11:17:17;;;;;;;4.38;3.55;;;21.20;80.90;;;;;;5041235;28;20191;-84
2022/05/06 11:19:43;;;;;;;4.97;3.50;;;21.30;81.30;;;;;;5040769;28;20330;-82
2022/05/06 11:22:09;;;;;;;4.45;3.50;;;21.40;81.20;;;;;;5040949;28;20313;-84
2022/05/06 11:24:35;;;;;;;6.72;3.75;;;21.20;81.50;;;;;;5040314;28;20195;-82
2022/05/06 11:27:20;;;;;;;5.72;3.92;;;21.20;84.00;;;;;;5040412;28;20214;-84
2022/05/06 11:29:50;;;;;;;6.05;3.45;;;21.20;81.80;;;;;;5040589;28;20183;-87
2022/05/06 11:32:17;;;;;;;4.28;3.72;;;21.40;83.10;;;;;;5028992;28;20201;-87
2022/05/06 11:35:08;;;;;;;4.70;3.40;;;21.50;83.10;;;;;;5041401;28;20210;-83
2022/05/06 11:37:34;;;;;;;4.90;3.83;;;21.60;81.70;;;;;;5041194;28;20194;-85
2022/05/06 11:40:19;;;;;;;5.38;4.05;;;21.90;80.20;;;;;;5041312;28;20183;-84
2022/05/06 11:42:58;;;;;;;4.38;3.80;;;22.10;78.80;;;;;;5041245;28;20238;-84
2022/05/06 11:48:13;;;;;;;4.63;3.05;;;22.20;78.40;;;;;;5025110;28;20337;-83
2022/05/06 11:50:40;;;;;;;3.45;2.45;;;22.80;77.40;;;;;;5040676;28;20187;-83
2022/05/06 11:53:10;;;;;;;3.08;2.78;;;23.10;76.30;;;;;;5040225;28;20207;-84
2022/05/06 11:55:38;;;;;;;3.83;2.65;;;23.00;71.10;;;;;;5042115;28;20183;-86
2022/05/06 11:58:09;;;;;;;3.60;2.20;;;23.20;70.30;;;;;;5025727;28;20190;-84
2022/05/06 12:00:34;;;;;;;3.03;2.22;;;22.80;68.70;;;;;;5041143;28;20187;-84
2022/05/06 12:03:05;;;;;;;2.50;1.83;;;22.80;69.50;;;;;;5026507;28;20206;-86
2022/05/06 12:05:33;;;;;;;2.22;2.03;;;22.70;70.30;;;;;;5039811;28;20191;-83
2022/05/06 12:07:59;;;;;;;2.30;1.63;;;22.80;68.70;;;;;;5040224;28;20687;-84
2022/05/06 12:10:25;;;;;;;2.90;1.90;;;22.60;69.20;;;;;;5039769;28;20211;-84
2022/05/06 12:12:57;;;;;;;2.42;1.60;;;22.50;70.30;;;;;;5024942;28;20593;-83
2022/05/06 12:15:29;;;;;;;2.17;1.98;;;22.30;69.80;;;;;;5039388;28;20183;-85
2022/05/06 12:18:06;;;;;;;2.65;1.60;;;21.90;70.90;;;;;;5039636;28;20198;-85
2022/05/06 12:20:40;;;;;;;2.58;1.83;;;21.80;71.40;;;;;;5039657;28;20215;-84
2022/05/06 12:23:07;;;;;;;3.20;2.13;;;21.50;74.30;;;;;;5039610;28;20210;-84
2022/05/06 12:25:39;;;;;;;3.55;2.30;;;21.30;74.50;;;;;;5039334;28;20244;-85
2022/05/06 12:28:13;;;;;;;3.15;2.40;;;21.40;73.00;;;;;;5039292;28;20723;-84
2022/05/06 12:30:39;;;;;;;4.05;2.25;;;21.50;71.80;;;;;;5039536;28;20186;-83
2022/05/06 12:33:11;;;;;;;3.92;2.42;;;21.50;73.00;;;;;;5039519;28;20209;-84
2022/05/06 12:35:58;;;;;;;3.55;2.60;;;21.60;73.40;;;;;;5039199;28;20191;-84
2022/05/06 12:38:39;;;;;;;2.47;2.17;;;21.30;71.70;;;;;;5039871;28;20183;-85
2022/05/06 12:41:28;;;;;;;3.40;2.60;;;21.40;70.50;;;;;;5040454;28;20267;-84
2022/05/06 12:43:59;;;;;;;3.20;2.00;;;22.00;69.90;;;;;;5024497;28;20187;-85
2022/05/06 12:46:31;;;;;;;2.30;2.10;;;22.10;70.10;;;;;;5022782;28;20191;-83
2022/05/06 12:51:44;;;;;;;3.70;2.33;;;22.10;68.90;;;;;;5023959;28;20229;-84
2022/05/06 12:54:11;;;;;;;2.05;1.92;;;22.10;70.40;;;;;;5039178;28;20214;-84
2022/05/06 12:56:38;;;;;;;2.05;1.60;;;22.30;68.40;;;;;;5038809;28;20191;-84
2022/05/06 12:59:04;;;;;;;1.65;1.45;;;22.20;67.30;;;;;;5039677;28;20528;-84
2022/05/06 13:01:30;;;;;;;2.47;1.90;;;22.20;68.40;;;;;;5038784;28;20179;-84
2022/05/06 13:03:56;;;;;;;4.20;1.90;;;22.10;66.80;;;;;;5039472;28;20842;-85
2022/05/06 13:06:22;;;;;;;3.22;1.80;;;22.20;68.70;;;;;;5023960;28;20248;-85
2022/05/06 13:08:47;;;;;;;1.83;1.63;;;22.40;68.20;;;;;;5024118;28;20214;-83
2022/05/06 13:11:13;;;;;;;2.75;1.98;;;22.20;66.70;;;;;;5038481;28;20223;-85
2022/05/06 13:13:39;;;;;;;2.17;1.73;;;21.90;66.70;;;;;;5038515;28;20943;-84
2022/05/06 13:16:04;;;;;;;6.00;2.10;;;21.70;68.30;;;;;;5023180;28;20182;-85
2022/05/06 13:18:33;;;;;;;3.38;1.80;;;21.70;67.90;;;;;;5038823;28;20187;-85
2022/05/06 13:20:58;;;;;;;2.45;1.73;;;21.60;68.70;;;;;;5038240;28;20194;-85
2022/05/06 13:23:24;;;;;;;2.35;1.63;;;21.50;68.30;;;;;;5038906;28;20219;-85
2022/05/06 13:25:49;;;;;;;2.92;1.60;;;21.40;68.60;;;;;;5038040;28;20183;-83
2022/05/06 13:28:16;;;;;;;3.15;1.70;;;20.80;70.20;;;;;;5038640;28;20692;-86
2022/05/06 13:30:41;;;;;;;2.72;1.83;;;21.00;69.50;;;;;;5038249;28;20193;-85
2022/05/06 13:33:07;;;;;;;2.08;1.80;;;21.00;69.40;;;;;;5038892;28;20573;-85
2022/05/06 13:35:33;;;;;;;3.15;1.70;;;21.10;70.00;;;;;;5023455;28;20210;-85